Time;durP1;ratioP1;P1;durP2;ratioP2;P2;SDS_P1;SDS_P2;PMS_P1;PMS_P2;Temp;Humidity;BMP_temperature;BMP_pressure;BME280_temperature;BME280_humidity;BME280_pressure;Samples;Min_cycle;Max_cycle;Signal;HPM_P1;HPM_P2
2022/10/01 00:00:01;;;;;;;17.90;10.30;;;;;;;;;;2071330;28;20068;-67
2022/10/01 00:01:05;;;;;;;20.65;10.85;;;;;;;;;;2075062;28;20102;-67
2022/10/01 00:02:08;;;;;;;22.05;11.10;;;;;;;;;;2079942;28;20780;-67
2022/10/01 00:03:12;;;;;;;19.38;10.57;;;;;;;;;;2071569;28;20292;-67
2022/10/01 00:04:16;;;;;;;23.58;10.77;;;;;;;;;;2065482;28;20451;-68
2022/10/01 00:05:21;;;;;;;22.05;11.93;;;;;;;;;;2080037;28;20628;-68
2022/10/01 00:06:23;;;;;;;19.95;10.82;;;;;;;;;;2089581;28;20048;-67
2022/10/01 00:07:25;;;;;;;19.30;10.75;;;;;;;;;;2072775;28;20294;-67
2022/10/01 00:08:26;;;;;;;18.50;10.57;;;;;;;;;;2065144;28;20125;-68
2022/10/01 00:09:35;;;;;;;21.35;10.77;;;;;;;;;;2081504;28;20502;-68
2022/10/01 00:10:40;;;;;;;18.40;10.32;;;;;;;;;;2081620;28;20288;-67
2022/10/01 00:11:43;;;;;;;20.30;10.45;;;;;;;;;;2072998;28;20037;-67
2022/10/01 00:12:47;;;;;;;21.48;10.52;;;;;;;;;;2066122;28;20677;-68
2022/10/01 00:13:52;;;;;;;21.48;10.85;;;;;;;;;;2080894;28;20279;-67
2022/10/01 00:14:55;;;;;;;20.60;11.20;;;;;;;;;;2081076;28;20284;-68
2022/10/01 00:15:59;;;;;;;22.08;10.95;;;;;;;;;;2081541;28;20695;-67
2022/10/01 00:17:03;;;;;;;21.77;10.75;;;;;;;;;;2089304;28;20295;-68
2022/10/01 00:18:06;;;;;;;23.08;11.05;;;;;;;;;;2081363;28;20073;-67
2022/10/01 00:19:13;;;;;;;20.23;10.65;;;;;;;;;;2082518;28;20049;-68
2022/10/01 00:20:15;;;;;;;22.85;10.90;;;;;;;;;;2081031;28;20296;-67
2022/10/01 00:21:17;;;;;;;21.20;10.70;;;;;;;;;;2064872;28;20050;-67
2022/10/01 00:22:19;;;;;;;20.83;11.10;;;;;;;;;;2057548;28;20285;-67
2022/10/01 00:23:23;;;;;;;20.90;10.75;;;;;;;;;;2064303;28;20042;-67
2022/10/01 00:24:25;;;;;;;25.60;11.55;;;;;;;;;;2073076;28;20785;-67
2022/10/01 00:25:26;;;;;;;20.77;10.85;;;;;;;;;;2064803;28;20426;-66
2022/10/01 00:26:29;;;;;;;22.83;11.43;;;;;;;;;;2072958;28;20356;-67
2022/10/01 00:27:30;;;;;;;22.90;11.05;;;;;;;;;;2064963;28;20277;-68
2022/10/01 00:28:31;;;;;;;22.40;10.90;;;;;;;;;;2071554;28;20100;-67
2022/10/01 00:29:33;;;;;;;23.73;11.23;;;;;;;;;;2073019;28;20026;-68
2022/10/01 00:30:35;;;;;;;19.55;10.77;;;;;;;;;;2064799;28;20285;-67
2022/10/01 00:31:36;;;;;;;20.92;10.82;;;;;;;;;;2080572;28;20032;-67
2022/10/01 00:32:40;;;;;;;19.00;10.88;;;;;;;;;;2098265;28;20277;-68
2022/10/01 00:33:44;;;;;;;21.77;11.10;;;;;;;;;;2089403;28;20036;-67
2022/10/01 00:34:52;;;;;;;21.85;11.57;;;;;;;;;;2082707;28;20295;-67
2022/10/01 00:35:56;;;;;;;22.17;10.85;;;;;;;;;;2075082;28;20033;-67
2022/10/01 00:37:01;;;;;;;21.15;11.52;;;;;;;;;;2073143;28;20041;-68
2022/10/01 00:38:02;;;;;;;21.92;11.25;;;;;;;;;;2064844;28;20509;-67
2022/10/01 00:39:09;;;;;;;25.20;10.38;;;;;;;;;;2067874;28;20033;-67
2022/10/01 00:40:13;;;;;;;26.35;11.65;;;;;;;;;;2073328;28;20469;-67
2022/10/01 00:41:20;;;;;;;22.90;11.43;;;;;;;;;;2067157;28;20057;-66
2022/10/01 00:42:26;;;;;;;19.63;10.27;;;;;;;;;;2082035;28;20053;-68
2022/10/01 00:43:36;;;;;;;24.48;11.70;;;;;;;;;;2081300;28;20787;-67
2022/10/01 00:44:40;;;;;;;;;;;;;;;;;;2073164;28;20292;-67
2022/10/01 00:45:43;;;;;;;22.13;11.23;;;;;;;;;;2065025;28;20142;-67
2022/10/01 00:46:44;;;;;;;24.00;10.95;;;;;;;;;;2064930;28;20482;-67
2022/10/01 00:47:55;;;;;;;24.98;10.93;;;;;;;;;;2073333;28;20345;-68
2022/10/01 00:48:57;;;;;;;22.38;11.15;;;;;;;;;;2080932;28;20283;-67
2022/10/01 00:50:00;;;;;;;21.30;11.25;;;;;;;;;;2073172;28;20291;-68
2022/10/01 00:51:05;;;;;;;19.42;11.45;;;;;;;;;;2073379;28;20281;-67
2022/10/01 00:52:10;;;;;;;24.85;11.45;;;;;;;;;;2072765;28;20269;-67
2022/10/01 00:53:18;;;;;;;21.77;11.48;;;;;;;;;;2073833;28;21112;-67
2022/10/01 00:54:29;;;;;;;21.40;11.15;;;;;;;;;;2080968;28;20388;-67
2022/10/01 00:55:35;;;;;;;24.17;12.45;;;;;;;;;;2065820;28;20273;-67
2022/10/01 00:56:40;;;;;;;20.80;10.85;;;;;;;;;;2057793;28;20270;-67
2022/10/01 00:57:44;;;;;;;25.77;12.00;;;;;;;;;;2073319;28;20268;-68
2022/10/01 00:58:53;;;;;;;21.50;11.05;;;;;;;;;;2080823;28;20276;-67
2022/10/01 00:59:59;;;;;;;20.53;10.90;;;;;;;;;;2073248;28;20296;-68
2022/10/01 01:01:03;;;;;;;21.80;11.13;;;;;;;;;;2085181;28;20287;-67
2022/10/01 01:02:14;;;;;;;21.38;10.98;;;;;;;;;;2090276;28;20299;-68
2022/10/01 01:03:15;;;;;;;23.85;11.68;;;;;;;;;;2088160;28;20271;-67
2022/10/01 01:04:22;;;;;;;21.80;11.13;;;;;;;;;;2073424;28;20292;-68
2022/10/01 01:05:29;;;;;;;21.58;10.93;;;;;;;;;;2080300;28;20272;-67
2022/10/01 01:06:35;;;;;;;19.90;11.27;;;;;;;;;;2082016;28;20280;-68
2022/10/01 01:07:46;;;;;;;20.30;10.65;;;;;;;;;;2088583;28;20341;-67
2022/10/01 01:09:04;;;;;;;22.30;11.05;;;;;;;;;;2089424;28;20402;-68
2022/10/01 01:10:10;;;;;;;21.00;10.85;;;;;;;;;;2088507;28;20286;-68
2022/10/01 01:11:21;;;;;;;20.58;10.77;;;;;;;;;;2088956;28;20757;-68
2022/10/01 01:12:32;;;;;;;23.65;11.25;;;;;;;;;;2072642;28;20757;-67
2022/10/01 01:13:36;;;;;;;24.15;11.75;;;;;;;;;;2069710;28;20030;-67
2022/10/01 01:14:54;;;;;;;24.10;11.43;;;;;;;;;;2080701;28;20901;-67
2022/10/01 01:16:04;;;;;;;19.55;10.73;;;;;;;;;;2089055;28;20051;-68
2022/10/01 01:17:07;;;;;;;;;;;;;;;;;;2089422;28;20036;-68
2022/10/01 01:18:29;;;;;;;21.23;10.70;;;;;;;;;;2088960;28;20490;-67
2022/10/01 01:19:46;;;;;;;26.33;11.55;;;;;;;;;;2075920;28;20283;-67
2022/10/01 01:21:04;;;;;;;21.25;11.27;;;;;;;;;;2082951;28;20485;-68
2022/10/01 01:22:07;;;;;;;21.58;10.88;;;;;;;;;;2089131;28;20302;-67
2022/10/01 01:23:11;;;;;;;26.08;12.07;;;;;;;;;;2088584;28;20286;-68
2022/10/01 01:24:33;;;;;;;23.77;11.55;;;;;;;;;;2073221;28;20630;-67
2022/10/01 01:26:01;;;;;;;23.20;11.73;;;;;;;;;;2070342;28;20283;-67
2022/10/01 01:27:11;;;;;;;22.63;10.80;;;;;;;;;;2071092;28;20755;-67
2022/10/01 01:28:14;;;;;;;23.27;11.98;;;;;;;;;;2071021;28;20041;-67
2022/10/01 01:29:30;;;;;;;21.40;11.75;;;;;;;;;;2064537;28;20361;-67
2022/10/01 01:30:39;;;;;;;23.85;11.35;;;;;;;;;;2074832;28;20604;-67
2022/10/01 01:31:45;;;;;;;26.02;11.32;;;;;;;;;;2089663;28;20263;-67
2022/10/01 01:32:52;;;;;;;31.13;11.55;;;;;;;;;;2089588;28;20318;-67
2022/10/01 01:33:58;;;;;;;21.52;12.13;;;;;;;;;;2089694;28;20283;-68
2022/10/01 01:35:03;;;;;;;22.67;11.73;;;;;;;;;;2081401;28;20672;-67
2022/10/01 01:36:12;;;;;;;21.48;11.32;;;;;;;;;;2065996;28;20277;-67
2022/10/01 01:37:21;;;;;;;23.02;11.20;;;;;;;;;;2065723;28;20340;-67
2022/10/01 01:38:29;;;;;;;26.63;11.73;;;;;;;;;;2066749;28;20308;-67
2022/10/01 01:39:30;;;;;;;23.95;11.55;;;;;;;;;;2070573;28;20500;-67
2022/10/01 01:40:35;;;;;;;27.13;12.05;;;;;;;;;;2072509;28;20843;-67
2022/10/01 01:41:40;;;;;;;25.55;11.90;;;;;;;;;;2064841;28;20281;-67
2022/10/01 01:42:43;;;;;;;24.23;12.02;;;;;;;;;;2065629;28;20304;-67
2022/10/01 01:43:48;;;;;;;24.50;11.93;;;;;;;;;;2080454;28;20279;-67
2022/10/01 01:44:53;;;;;;;26.70;12.48;;;;;;;;;;2080221;28;20276;-67
2022/10/01 01:45:57;;;;;;;23.85;12.38;;;;;;;;;;2080540;28;20859;-68
2022/10/01 01:47:01;;;;;;;28.63;12.60;;;;;;;;;;2064847;28;20280;-68
2022/10/01 01:48:05;;;;;;;23.52;12.40;;;;;;;;;;2056094;28;20309;-68
2022/10/01 01:49:07;;;;;;;24.65;11.93;;;;;;;;;;2057625;28;20627;-67
2022/10/01 01:50:14;;;;;;;27.13;13.02;;;;;;;;;;2073256;28;20277;-67
2022/10/01 01:51:31;;;;;;;27.20;11.68;;;;;;;;;;2080375;28;20287;-68
2022/10/01 01:52:32;;;;;;;25.83;12.20;;;;;;;;;;2072250;28;20288;-67
2022/10/01 01:53:39;;;;;;;27.27;13.23;;;;;;;;;;2057545;28;20284;-67
2022/10/01 01:54:46;;;;;;;23.00;12.07;;;;;;;;;;2066098;28;20280;-67
2022/10/01 01:55:48;;;;;;;26.35;12.60;;;;;;;;;;2072740;28;20277;-67
2022/10/01 01:56:50;;;;;;;21.92;12.23;;;;;;;;;;2072243;28;20335;-67
2022/10/01 01:57:53;;;;;;;27.27;12.15;;;;;;;;;;2072060;28;20352;-68
2022/10/01 01:58:58;;;;;;;26.65;12.30;;;;;;;;;;2080530;28;20798;-67
2022/10/01 02:00:02;;;;;;;25.77;12.43;;;;;;;;;;2084606;28;20283;-67
2022/10/01 02:01:27;;;;;;;24.13;12.77;;;;;;;;;;2087048;28;20647;-67
2022/10/01 02:02:39;;;;;;;23.65;11.57;;;;;;;;;;2087600;28;20349;-66
2022/10/01 02:03:40;;;;;;;25.13;12.40;;;;;;;;;;2085893;28;20276;-66
2022/10/01 02:04:41;;;;;;;22.00;11.40;;;;;;;;;;2088663;28;20298;-66
2022/10/01 02:05:56;;;;;;;21.98;11.80;;;;;;;;;;2088323;28;20283;-66
2022/10/01 02:07:00;;;;;;;24.85;12.05;;;;;;;;;;2088356;28;20316;-67
2022/10/01 02:08:19;;;;;;;26.88;12.43;;;;;;;;;;2080561;28;20660;-67
2022/10/01 02:09:29;;;;;;;23.23;11.20;;;;;;;;;;2074505;28;20498;-67
2022/10/01 02:10:55;;;;;;;22.33;12.02;;;;;;;;;;2082506;28;20052;-67
2022/10/01 02:12:09;;;;;;;24.40;12.30;;;;;;;;;;2088617;28;20295;-67
2022/10/01 02:13:12;;;;;;;26.58;11.75;;;;;;;;;;2081852;28;20764;-67
2022/10/01 02:14:34;;;;;;;23.48;11.93;;;;;;;;;;2088781;28;20794;-68
2022/10/01 02:15:54;;;;;;;24.40;12.07;;;;;;;;;;2081249;28;20299;-67
2022/10/01 02:17:04;;;;;;;23.17;11.57;;;;;;;;;;2075090;28;20041;-67
2022/10/01 02:18:11;;;;;;;23.88;12.57;;;;;;;;;;2065419;28;20276;-67
2022/10/01 02:19:50;;;;;;;26.25;11.93;;;;;;;;;;2062945;28;20289;-68
2022/10/01 02:21:08;;;;;;;28.63;12.00;;;;;;;;;;2041821;29;20039;-68
2022/10/01 02:22:25;;;;;;;22.55;12.15;;;;;;;;;;2044665;28;20039;-68
2022/10/01 02:23:32;;;;;;;26.98;12.95;;;;;;;;;;2066911;28;20029;-67
2022/10/01 02:24:47;;;;;;;27.52;12.45;;;;;;;;;;2080298;28;20668;-67
2022/10/01 02:25:54;;;;;;;24.73;12.23;;;;;;;;;;2072001;28;21007;-68
2022/10/01 02:26:56;;;;;;;20.75;11.35;;;;;;;;;;2057626;28;20274;-68
2022/10/01 02:28:00;;;;;;;24.42;12.10;;;;;;;;;;2072122;28;20280;-68
2022/10/01 02:29:07;;;;;;;23.27;12.30;;;;;;;;;;2080459;28;20282;-68
2022/10/01 02:30:10;;;;;;;25.83;12.80;;;;;;;;;;2080302;28;20264;-67
2022/10/01 02:31:15;;;;;;;26.90;12.10;;;;;;;;;;2073866;28;20284;-67
2022/10/01 02:32:23;;;;;;;23.02;11.88;;;;;;;;;;2073003;28;20349;-67
2022/10/01 02:33:26;;;;;;;22.92;12.40;;;;;;;;;;2072573;28;20293;-66
2022/10/01 02:34:29;;;;;;;22.92;11.43;;;;;;;;;;2079792;28;20935;-66
2022/10/01 02:35:31;;;;;;;23.08;11.75;;;;;;;;;;2072383;28;20784;-67
2022/10/01 02:36:35;;;;;;;24.38;12.82;;;;;;;;;;2064271;28;20281;-67
2022/10/01 02:37:40;;;;;;;23.98;12.07;;;;;;;;;;2064987;28;20340;-66
2022/10/01 02:38:43;;;;;;;24.60;12.32;;;;;;;;;;2063920;28;20292;-67
2022/10/01 02:39:46;;;;;;;23.83;12.35;;;;;;;;;;2078493;28;20653;-66
2022/10/01 02:40:52;;;;;;;25.63;12.60;;;;;;;;;;2080583;28;20628;-67
2022/10/01 02:41:57;;;;;;;24.13;11.98;;;;;;;;;;2064033;28;20293;-67
2022/10/01 02:43:00;;;;;;;23.85;11.25;;;;;;;;;;2072981;28;20291;-67
2022/10/01 02:44:06;;;;;;;22.63;11.98;;;;;;;;;;2071847;28;20280;-66
2022/10/01 02:45:09;;;;;;;27.60;11.85;;;;;;;;;;2073384;28;20281;-67
2022/10/01 02:46:14;;;;;;;25.13;11.63;;;;;;;;;;2080432;28;20276;-66
2022/10/01 02:47:24;;;;;;;25.05;11.93;;;;;;;;;;2080278;28;20280;-67
2022/10/01 02:48:34;;;;;;;23.38;12.32;;;;;;;;;;2088249;28;20278;-67
2022/10/01 02:49:40;;;;;;;19.63;11.57;;;;;;;;;;2087969;28;20627;-66
2022/10/01 02:50:56;;;;;;;23.75;12.60;;;;;;;;;;2080747;28;20275;-67
2022/10/01 02:52:19;;;;;;;25.13;11.77;;;;;;;;;;2081811;28;20287;-68
2022/10/01 02:53:38;;;;;;;24.95;12.35;;;;;;;;;;2071325;28;20272;-67
2022/10/01 02:54:44;;;;;;;30.20;11.80;;;;;;;;;;2060539;28;20277;-67
2022/10/01 02:55:47;;;;;;;27.30;13.05;;;;;;;;;;2065177;28;20269;-67
2022/10/01 02:58:17;;;;;;;23.35;11.77;;;;;;;;;;2080396;28;20267;-67
2022/10/01 02:59:21;;;;;;;21.77;12.52;;;;;;;;;;2079819;28;20283;-66
2022/10/01 03:00:27;;;;;;;24.85;12.02;;;;;;;;;;2079159;28;20268;-66
2022/10/01 03:01:34;;;;;;;22.60;11.25;;;;;;;;;;2088941;28;20675;-66
2022/10/01 03:02:38;;;;;;;24.38;12.38;;;;;;;;;;2096127;28;20369;-66
2022/10/01 03:03:42;;;;;;;24.50;12.27;;;;;;;;;;2091881;28;20036;-66
2022/10/01 03:04:49;;;;;;;26.73;12.27;;;;;;;;;;2080587;28;20772;-66
2022/10/01 03:05:50;;;;;;;24.40;12.60;;;;;;;;;;2080462;28;20276;-66
2022/10/01 03:06:54;;;;;;;23.70;12.27;;;;;;;;;;2071883;28;20277;-66
2022/10/01 03:07:58;;;;;;;25.13;12.23;;;;;;;;;;2056767;28;20359;-66
2022/10/01 03:09:00;;;;;;;24.65;11.90;;;;;;;;;;2063671;28;20281;-66
2022/10/01 03:10:03;;;;;;;23.65;12.15;;;;;;;;;;2071805;28;20277;-66
2022/10/01 03:11:09;;;;;;;24.73;12.23;;;;;;;;;;2081033;28;20783;-67
2022/10/01 03:12:12;;;;;;;25.60;11.98;;;;;;;;;;2080567;28;20272;-68
2022/10/01 03:13:13;;;;;;;24.95;12.98;;;;;;;;;;2071655;28;20277;-68
2022/10/01 03:14:14;;;;;;;25.23;13.02;;;;;;;;;;2071969;28;20279;-67
2022/10/01 03:15:18;;;;;;;25.35;12.38;;;;;;;;;;2084338;28;20287;-67
2022/10/01 03:16:19;;;;;;;23.58;12.20;;;;;;;;;;2071663;28;20276;-67
2022/10/01 03:17:21;;;;;;;25.25;12.48;;;;;;;;;;2071845;28;20281;-67
2022/10/01 03:18:24;;;;;;;21.48;11.80;;;;;;;;;;2063458;28;20296;-68
2022/10/01 03:19:25;;;;;;;25.58;11.90;;;;;;;;;;2056351;28;20289;-67
2022/10/01 03:20:27;;;;;;;23.20;11.90;;;;;;;;;;2079732;28;20280;-67
2022/10/01 03:21:31;;;;;;;22.75;12.23;;;;;;;;;;2063705;28;20293;-68
2022/10/01 03:22:35;;;;;;;23.48;11.82;;;;;;;;;;2063692;28;20281;-67
2022/10/01 03:23:41;;;;;;;23.08;12.77;;;;;;;;;;2064073;28;20281;-67
2022/10/01 03:24:47;;;;;;;23.25;11.85;;;;;;;;;;2065501;28;20814;-67
2022/10/01 03:25:51;;;;;;;32.65;12.80;;;;;;;;;;2063837;28;20278;-67
2022/10/01 03:26:56;;;;;;;26.05;12.60;;;;;;;;;;2064164;28;20274;-67
2022/10/01 03:27:58;;;;;;;23.10;12.43;;;;;;;;;;2065824;28;20277;-67
2022/10/01 03:29:03;;;;;;;25.70;12.95;;;;;;;;;;2072819;28;20276;-67
2022/10/01 03:30:08;;;;;;;24.58;11.65;;;;;;;;;;2072361;28;20284;-67
2022/10/01 03:31:13;;;;;;;29.90;12.85;;;;;;;;;;2079864;28;20256;-67
2022/10/01 03:32:15;;;;;;;22.65;11.75;;;;;;;;;;2079075;28;20288;-67
2022/10/01 03:33:22;;;;;;;27.50;12.45;;;;;;;;;;2080776;28;20272;-68
2022/10/01 03:34:27;;;;;;;23.00;12.35;;;;;;;;;;2087898;28;20286;-67
2022/10/01 03:35:28;;;;;;;25.48;12.10;;;;;;;;;;2076720;28;20637;-67
2022/10/01 03:36:33;;;;;;;23.95;12.02;;;;;;;;;;2079691;28;20264;-67
2022/10/01 03:37:37;;;;;;;23.27;12.02;;;;;;;;;;2079518;28;20291;-67
2022/10/01 03:38:39;;;;;;;24.67;12.18;;;;;;;;;;2071679;28;20276;-67
2022/10/01 03:39:40;;;;;;;30.20;13.15;;;;;;;;;;2086849;28;20267;-67
2022/10/01 03:40:45;;;;;;;30.08;12.30;;;;;;;;;;2087808;28;20282;-67
2022/10/01 03:41:50;;;;;;;26.73;11.95;;;;;;;;;;2088221;28;20283;-67
2022/10/01 03:42:52;;;;;;;24.40;12.55;;;;;;;;;;2088397;28;20286;-67
2022/10/01 03:43:53;;;;;;;24.23;12.80;;;;;;;;;;2079654;28;20783;-67
2022/10/01 03:44:55;;;;;;;28.98;13.20;;;;;;;;;;2071485;28;20280;-67
2022/10/01 03:46:00;;;;;;;27.83;12.95;;;;;;;;;;2071782;28;20803;-67
2022/10/01 03:47:03;;;;;;;26.38;12.48;;;;;;;;;;2072398;28;20264;-67
2022/10/01 03:48:09;;;;;;;26.08;12.52;;;;;;;;;;2079924;28;20298;-67
2022/10/01 03:49:11;;;;;;;27.35;12.75;;;;;;;;;;2082673;28;20606;-68
2022/10/01 03:50:20;;;;;;;24.88;13.10;;;;;;;;;;2079565;28;20871;-67
2022/10/01 03:51:23;;;;;;;25.23;12.13;;;;;;;;;;2071607;28;20618;-67
2022/10/01 03:52:25;;;;;;;24.35;12.63;;;;;;;;;;2071902;28;20273;-67
2022/10/01 03:53:30;;;;;;;22.25;11.95;;;;;;;;;;2071261;28;20284;-67
2022/10/01 03:54:31;;;;;;;24.40;12.73;;;;;;;;;;2071979;28;20276;-67
2022/10/01 03:55:36;;;;;;;25.17;12.68;;;;;;;;;;2079697;28;20272;-68
2022/10/01 03:56:41;;;;;;;24.45;12.30;;;;;;;;;;2070948;28;20272;-68
2022/10/01 03:57:42;;;;;;;24.92;12.40;;;;;;;;;;2064389;28;20789;-67
2022/10/01 03:58:45;;;;;;;20.73;11.45;;;;;;;;;;2071452;28;20281;-67
2022/10/01 03:59:46;;;;;;;24.13;13.05;;;;;;;;;;2079509;28;20272;-67
2022/10/01 04:00:56;;;;;;;28.58;13.15;;;;;;;;;;2079859;28;20790;-67
2022/10/01 04:02:01;;;;;;;24.15;12.73;;;;;;;;;;2080694;28;20641;-68
2022/10/01 04:03:06;;;;;;;25.40;12.50;;;;;;;;;;2079443;28;20296;-67
2022/10/01 04:04:10;;;;;;;25.15;12.57;;;;;;;;;;2072099;28;20292;-67
2022/10/01 04:05:13;;;;;;;25.30;12.68;;;;;;;;;;2079568;28;20279;-67
2022/10/01 04:06:15;;;;;;;29.15;13.00;;;;;;;;;;2077994;28;20295;-67
2022/10/01 04:07:18;;;;;;;24.63;12.82;;;;;;;;;;2070916;28;20284;-68
2022/10/01 04:08:22;;;;;;;26.08;12.65;;;;;;;;;;2071208;28;20280;-68
2022/10/01 04:09:28;;;;;;;23.52;12.02;;;;;;;;;;2072023;28;20831;-68
2022/10/01 04:10:29;;;;;;;26.33;12.35;;;;;;;;;;2063578;28;20265;-68
2022/10/01 04:11:34;;;;;;;25.58;13.02;;;;;;;;;;2071381;28;20261;-68
2022/10/01 04:12:35;;;;;;;24.17;12.23;;;;;;;;;;2079510;28;20276;-68
2022/10/01 04:13:39;;;;;;;23.17;12.32;;;;;;;;;;2055251;28;20293;-67
2022/10/01 04:14:41;;;;;;;26.48;12.48;;;;;;;;;;2056280;28;20297;-68
2022/10/01 04:15:47;;;;;;;21.42;12.27;;;;;;;;;;2079339;28;20276;-68
2022/10/01 04:16:51;;;;;;;25.70;13.25;;;;;;;;;;2063532;28;20280;-68
2022/10/01 04:17:57;;;;;;;23.63;12.90;;;;;;;;;;2065328;28;20278;-68
2022/10/01 04:18:59;;;;;;;30.38;13.38;;;;;;;;;;2063448;28;20639;-68
2022/10/01 04:20:04;;;;;;;25.85;13.65;;;;;;;;;;2071851;28;20384;-67
2022/10/01 04:21:11;;;;;;;25.80;12.52;;;;;;;;;;2080332;28;20287;-67
2022/10/01 04:22:13;;;;;;;25.17;12.95;;;;;;;;;;2079480;28;20272;-68
2022/10/01 04:23:16;;;;;;;27.45;12.23;;;;;;;;;;2071094;28;20295;-67
2022/10/01 04:24:19;;;;;;;25.98;12.05;;;;;;;;;;2079440;28;20288;-67
2022/10/01 04:25:24;;;;;;;26.40;12.65;;;;;;;;;;2071208;28;20684;-67
2022/10/01 04:26:27;;;;;;;22.70;12.23;;;;;;;;;;2063954;28;20634;-67
2022/10/01 04:27:33;;;;;;;27.05;13.02;;;;;;;;;;2063979;28;20791;-68
2022/10/01 04:28:35;;;;;;;22.92;12.40;;;;;;;;;;2079805;28;20306;-67
2022/10/01 04:29:36;;;;;;;24.63;13.20;;;;;;;;;;2079308;28;20276;-67
2022/10/01 04:30:40;;;;;;;23.05;12.32;;;;;;;;;;2063281;28;20270;-67
2022/10/01 04:31:45;;;;;;;23.33;12.30;;;;;;;;;;2071834;28;20273;-68
2022/10/01 04:32:52;;;;;;;27.90;13.05;;;;;;;;;;2079352;28;20310;-67
2022/10/01 04:33:57;;;;;;;24.88;12.55;;;;;;;;;;2065983;28;20273;-67
2022/10/01 04:35:03;;;;;;;26.40;12.57;;;;;;;;;;2072560;28;20280;-67
2022/10/01 04:36:07;;;;;;;27.63;13.48;;;;;;;;;;2078287;28;20264;-66
2022/10/01 04:37:09;;;;;;;23.83;12.82;;;;;;;;;;2077438;28;20284;-67
2022/10/01 04:38:15;;;;;;;31.08;13.57;;;;;;;;;;2061202;28;20811;-68
2022/10/01 04:39:20;;;;;;;24.85;12.20;;;;;;;;;;2072728;28;20323;-67
2022/10/01 04:40:22;;;;;;;26.25;12.40;;;;;;;;;;2077949;28;20045;-67
2022/10/01 04:41:24;;;;;;;28.00;11.68;;;;;;;;;;2069319;28;20626;-67
2022/10/01 04:42:29;;;;;;;23.60;12.43;;;;;;;;;;2069930;28;20279;-67
2022/10/01 04:43:30;;;;;;;23.33;12.30;;;;;;;;;;2069171;28;20305;-68
2022/10/01 04:44:32;;;;;;;28.80;12.95;;;;;;;;;;2061270;28;20283;-67
2022/10/01 04:45:34;;;;;;;23.55;12.43;;;;;;;;;;2082799;28;20892;-67
2022/10/01 04:46:38;;;;;;;23.30;13.27;;;;;;;;;;2077485;28;20280;-66
2022/10/01 04:47:46;;;;;;;29.05;13.07;;;;;;;;;;2078004;28;20295;-66
2022/10/01 04:48:50;;;;;;;27.48;14.18;;;;;;;;;;2082604;28;20291;-67
2022/10/01 04:49:55;;;;;;;28.10;14.68;;;;;;;;;;2094004;28;20278;-67
2022/10/01 04:51:04;;;;;;;25.52;13.32;;;;;;;;;;2094089;28;20287;-67
2022/10/01 04:52:08;;;;;;;25.00;12.50;;;;;;;;;;2095752;28;20289;-67
2022/10/01 04:53:09;;;;;;;25.92;12.63;;;;;;;;;;2080451;28;20029;-67
2022/10/01 04:54:11;;;;;;;24.88;12.43;;;;;;;;;;2071424;28;20276;-67
2022/10/01 04:55:14;;;;;;;24.10;12.23;;;;;;;;;;2064018;28;20289;-67
2022/10/01 04:56:18;;;;;;;24.15;12.15;;;;;;;;;;2063744;28;20273;-67
2022/10/01 04:57:20;;;;;;;23.20;11.88;;;;;;;;;;2063871;28;20269;-67
2022/10/01 04:58:22;;;;;;;26.15;12.48;;;;;;;;;;2071611;28;20288;-67
2022/10/01 04:59:26;;;;;;;25.30;13.10;;;;;;;;;;2071587;28;20268;-67
2022/10/01 05:00:30;;;;;;;24.02;11.85;;;;;;;;;;2073620;28;20292;-67
2022/10/01 05:01:32;;;;;;;22.58;11.85;;;;;;;;;;2088565;28;20052;-67
2022/10/01 05:02:37;;;;;;;22.30;11.60;;;;;;;;;;2087760;28;20283;-67
2022/10/01 05:03:38;;;;;;;24.65;12.95;;;;;;;;;;2084184;28;20295;-68
2022/10/01 05:04:41;;;;;;;24.83;12.55;;;;;;;;;;2079463;28;20284;-68
2022/10/01 05:05:45;;;;;;;25.27;11.63;;;;;;;;;;2063216;28;20279;-67
2022/10/01 05:06:49;;;;;;;26.10;12.07;;;;;;;;;;2080048;28;20264;-67
2022/10/01 05:07:50;;;;;;;26.42;13.25;;;;;;;;;;2087718;28;20275;-68
2022/10/01 05:08:54;;;;;;;23.67;12.25;;;;;;;;;;2079379;28;20764;-67
2022/10/01 05:10:01;;;;;;;24.20;11.57;;;;;;;;;;2087579;28;20275;-67
2022/10/01 05:11:05;;;;;;;25.15;12.98;;;;;;;;;;2079625;28;20904;-67
2022/10/01 05:12:07;;;;;;;28.45;13.35;;;;;;;;;;2064322;28;20954;-67
2022/10/01 05:13:09;;;;;;;24.02;12.57;;;;;;;;;;2063230;28;20900;-67
2022/10/01 05:14:14;;;;;;;25.38;12.60;;;;;;;;;;2063102;28;20281;-67
2022/10/01 05:15:17;;;;;;;25.55;13.00;;;;;;;;;;2063756;28;20281;-68
2022/10/01 05:16:23;;;;;;;26.25;12.00;;;;;;;;;;2072363;28;21061;-68
2022/10/01 05:17:25;;;;;;;25.30;12.30;;;;;;;;;;2071522;28;20280;-67
2022/10/01 05:18:26;;;;;;;27.15;12.10;;;;;;;;;;2071364;28;20749;-67
2022/10/01 05:19:31;;;;;;;26.23;13.45;;;;;;;;;;2063160;28;20281;-67
2022/10/01 05:20:36;;;;;;;26.45;12.85;;;;;;;;;;2064140;28;20324;-66
2022/10/01 05:21:42;;;;;;;26.15;13.48;;;;;;;;;;2055692;28;20277;-66
2022/10/01 05:22:53;;;;;;;29.92;13.45;;;;;;;;;;2067217;28;20273;-67
2022/10/01 05:23:56;;;;;;;26.73;13.15;;;;;;;;;;2079037;28;20417;-68
2022/10/01 05:24:59;;;;;;;29.17;13.40;;;;;;;;;;2063691;28;20764;-67
2022/10/01 05:26:04;;;;;;;28.52;13.57;;;;;;;;;;2064117;28;20280;-67
2022/10/01 05:27:12;;;;;;;20.60;12.18;;;;;;;;;;2062979;28;20293;-67
2022/10/01 05:28:15;;;;;;;26.52;12.45;;;;;;;;;;2057599;28;20039;-67
2022/10/01 05:29:18;;;;;;;24.33;12.70;;;;;;;;;;2071616;28;20033;-67
2022/10/01 05:30:27;;;;;;;24.70;12.38;;;;;;;;;;2063373;28;20038;-66
2022/10/01 05:31:29;;;;;;;21.00;11.48;;;;;;;;;;2076155;28;20045;-67
2022/10/01 05:32:31;;;;;;;28.02;11.98;;;;;;;;;;2071064;28;20026;-69
2022/10/01 05:33:39;;;;;;;22.65;11.68;;;;;;;;;;2071028;28;20041;-68
2022/10/01 05:34:42;;;;;;;22.15;11.52;;;;;;;;;;2079510;28;20029;-68
2022/10/01 05:35:46;;;;;;;24.23;12.07;;;;;;;;;;2063395;28;20457;-67
2022/10/01 05:36:48;;;;;;;23.27;12.13;;;;;;;;;;2062175;28;20030;-68
2022/10/01 05:37:52;;;;;;;24.63;12.38;;;;;;;;;;2071153;28;20045;-68
2022/10/01 05:38:55;;;;;;;26.08;12.27;;;;;;;;;;2063116;28;20038;-68
2022/10/01 05:39:59;;;;;;;29.02;12.30;;;;;;;;;;2063958;28;20046;-68
2022/10/01 05:41:01;;;;;;;21.42;11.50;;;;;;;;;;2063450;28;20034;-68
2022/10/01 05:42:04;;;;;;;22.65;11.85;;;;;;;;;;2071235;28;20434;-68
2022/10/01 05:43:11;;;;;;;21.25;11.30;;;;;;;;;;2079365;28;20044;-69
2022/10/01 05:44:13;;;;;;;20.38;10.90;;;;;;;;;;2063249;28;20034;-70
2022/10/01 05:46:00;;;;;;;23.73;11.57;;;;;;;18.68;48.31;100392.91;2119726;27;21107;-68
2022/10/01 05:47:05;;;;;;;25.20;11.80;;;;;;;19.30;47.08;100395.75;2102107;28;20036;-71
2022/10/01 05:48:11;;;;;;;18.45;10.50;;;;;;;19.53;45.64;100385.94;2094524;28;20033;-70
2022/10/01 05:49:16;;;;;;;24.10;11.20;;;;;;;19.17;45.38;100387.56;2086599;28;20045;-70
2022/10/01 05:50:20;;;;;;;27.63;11.50;;;;;;;19.27;45.51;100386.31;2085661;28;20041;-74
2022/10/01 05:51:28;;;;;;;19.77;11.30;;;;;;;19.39;45.57;100383.59;2078108;28;20050;-71
2022/10/01 05:52:33;;;;;;;21.58;11.50;;;;;;;19.44;45.30;100385.28;2078467;28;20038;-70
2022/10/01 05:53:41;;;;;;;20.48;10.85;;;;;;;19.52;45.19;100384.38;2086648;28;20037;-72
2022/10/01 05:54:50;;;;;;;18.75;10.45;;;;;;;19.19;45.56;100379.81;2099885;28;20054;-72
2022/10/01 05:55:57;;;;;;;20.88;10.30;;;;;;;18.72;46.51;100380.22;2093086;28;20047;-72
2022/10/01 05:57:07;;;;;;;22.20;10.95;;;;;;;18.22;47.65;100381.22;2086817;28;20176;-72
2022/10/01 05:58:14;;;;;;;22.25;11.60;;;;;;;18.01;48.36;100383.16;2080299;28;20117;-71
2022/10/01 05:59:16;;;;;;;21.38;10.63;;;;;;;18.06;48.47;100382.94;2085620;28;20546;-72
2022/10/01 06:00:21;;;;;;;21.45;10.93;;;;;;;18.16;48.03;100377.09;2077279;28;20045;-71
2022/10/01 06:01:24;;;;;;;21.98;10.95;;;;;;;18.68;47.32;100381.22;2086997;28;20057;-72
2022/10/01 06:02:31;;;;;;;23.45;11.15;;;;;;;19.30;46.15;100382.91;2102339;28;20056;-72
2022/10/01 06:03:40;;;;;;;19.58;10.70;;;;;;;20.45;43.94;100367.94;2101997;28;20043;-72
2022/10/01 06:04:45;;;;;;;22.08;10.82;;;;;;;21.30;42.06;100379.44;2102066;28;20044;-73
2022/10/01 06:05:49;;;;;;;19.05;10.48;;;;;;;21.85;40.33;100377.56;2097451;28;20381;-72
2022/10/01 06:06:52;;;;;;;20.40;10.43;;;;;;;22.52;39.40;100380.06;2102020;28;20055;-72
2022/10/01 06:07:58;;;;;;;21.52;10.63;;;;;;;23.41;38.25;100371.75;2094309;28;20041;-73
2022/10/01 06:09:08;;;;;;;19.35;10.10;;;;;;;24.08;36.54;100371.88;2109806;28;20052;-73
2022/10/01 06:10:13;;;;;;;22.83;10.55;;;;;;;24.14;35.56;100367.63;2101978;28;20715;-69
2022/10/01 06:11:18;;;;;;;19.30;10.68;;;;;;;24.26;36.02;100361.09;2081813;28;20045;-70
2022/10/01 06:12:20;;;;;;;19.23;10.07;;;;;;;24.54;35.43;100365.31;2077631;28;20089;-69
2022/10/01 06:13:28;;;;;;;23.83;10.98;;;;;;;24.69;34.65;100367.84;2085286;28;20052;-70
2022/10/01 06:14:35;;;;;;;20.58;11.05;;;;;;;24.73;34.69;100362.34;2093658;28;20558;-70